sensor_id;sensor_type;location;lat;lon;timestamp;P1;durP1;ratioP1;P2;durP2;ratioP2
1721;SDS011;858;53.190;8.596;2023-09-12T00:00:06;58.37;;;44.90;;
1721;SDS011;858;53.190;8.596;2023-09-12T00:02:33;66.23;;;45.43;;
1721;SDS011;858;53.190;8.596;2023-09-12T00:04:59;66.90;;;47.73;;
1721;SDS011;858;53.190;8.596;2023-09-12T00:07:25;66.53;;;46.77;;
1721;SDS011;858;53.190;8.596;2023-09-12T00:09:54;68.47;;;48.37;;
1721;SDS011;858;53.190;8.596;2023-09-12T00:12:22;63.00;;;44.47;;
1721;SDS011;858;53.190;8.596;2023-09-12T00:14:48;64.00;;;46.50;;
1721;SDS011;858;53.190;8.596;2023-09-12T00:17:14;72.27;;;47.77;;
1721;SDS011;858;53.190;8.596;2023-09-12T00:19:42;67.50;;;48.30;;
1721;SDS011;858;53.190;8.596;2023-09-12T00:22:08;63.47;;;45.83;;
1721;SDS011;858;53.190;8.596;2023-09-12T00:24:35;58.73;;;43.03;;
1721;SDS011;858;53.190;8.596;2023-09-12T00:27:04;62.40;;;44.47;;
1721;SDS011;858;53.190;8.596;2023-09-12T00:29:31;68.23;;;46.60;;
1721;SDS011;858;53.190;8.596;2023-09-12T00:31:57;62.80;;;47.47;;
1721;SDS011;858;53.190;8.596;2023-09-12T00:34:24;55.77;;;41.90;;
1721;SDS011;858;53.190;8.596;2023-09-12T00:36:50;71.97;;;48.20;;
1721;SDS011;858;53.190;8.596;2023-09-12T00:39:16;70.20;;;44.63;;
1721;SDS011;858;53.190;8.596;2023-09-12T00:41:43;61.33;;;45.33;;
1721;SDS011;858;53.190;8.596;2023-09-12T00:44:11;54.20;;;41.13;;
1721;SDS011;858;53.190;8.596;2023-09-12T00:46:37;52.87;;;42.37;;
1721;SDS011;858;53.190;8.596;2023-09-12T00:49:04;58.37;;;45.60;;
1721;SDS011;858;53.190;8.596;2023-09-12T00:51:32;56.80;;;42.07;;
1721;SDS011;858;53.190;8.596;2023-09-12T00:53:59;50.53;;;38.50;;
1721;SDS011;858;53.190;8.596;2023-09-12T00:56:25;57.27;;;41.77;;
1721;SDS011;858;53.190;8.596;2023-09-12T00:58:52;61.67;;;43.37;;
1721;SDS011;858;53.190;8.596;2023-09-12T01:01:20;62.70;;;44.57;;
1721;SDS011;858;53.190;8.596;2023-09-12T01:03:46;58.50;;;43.90;;
1721;SDS011;858;53.190;8.596;2023-09-12T01:06:13;51.30;;;41.03;;
1721;SDS011;858;53.190;8.596;2023-09-12T01:08:41;59.87;;;43.37;;
1721;SDS011;858;53.190;8.596;2023-09-12T01:11:07;58.17;;;40.77;;
1721;SDS011;858;53.190;8.596;2023-09-12T01:13:34;55.50;;;43.00;;
1721;SDS011;858;53.190;8.596;2023-09-12T01:16:00;60.03;;;44.77;;
1721;SDS011;858;53.190;8.596;2023-09-12T01:18:28;52.53;;;42.17;;
1721;SDS011;858;53.190;8.596;2023-09-12T01:21:02;64.53;;;45.80;;
1721;SDS011;858;53.190;8.596;2023-09-12T01:23:35;60.47;;;45.40;;
1721;SDS011;858;53.190;8.596;2023-09-12T01:26:17;57.97;;;41.53;;
1721;SDS011;858;53.190;8.596;2023-09-12T01:28:52;52.67;;;41.47;;
1721;SDS011;858;53.190;8.596;2023-09-12T01:31:20;58.93;;;45.37;;
1721;SDS011;858;53.190;8.596;2023-09-12T01:33:48;59.40;;;44.70;;
1721;SDS011;858;53.190;8.596;2023-09-12T01:36:15;55.20;;;46.37;;
1721;SDS011;858;53.190;8.596;2023-09-12T01:38:41;64.80;;;44.60;;
1721;SDS011;858;53.190;8.596;2023-09-12T01:41:08;66.83;;;46.13;;
1721;SDS011;858;53.190;8.596;2023-09-12T01:43:34;55.37;;;42.67;;
1721;SDS011;858;53.190;8.596;2023-09-12T01:46:05;70.90;;;48.97;;
1721;SDS011;858;53.190;8.596;2023-09-12T01:48:33;63.43;;;47.97;;
1721;SDS011;858;53.190;8.596;2023-09-12T01:51:00;66.50;;;48.23;;
1721;SDS011;858;53.190;8.596;2023-09-12T01:53:27;67.23;;;49.70;;
1721;SDS011;858;53.190;8.596;2023-09-12T01:55:54;71.03;;;50.90;;
1721;SDS011;858;53.190;8.596;2023-09-12T01:58:24;66.00;;;49.30;;
1721;SDS011;858;53.190;8.596;2023-09-12T02:00:51;69.97;;;50.27;;
1721;SDS011;858;53.190;8.596;2023-09-12T02:03:19;69.37;;;50.00;;
1721;SDS011;858;53.190;8.596;2023-09-12T02:05:45;69.70;;;50.27;;
1721;SDS011;858;53.190;8.596;2023-09-12T02:08:11;58.30;;;45.03;;
1721;SDS011;858;53.190;8.596;2023-09-12T02:10:38;60.03;;;45.70;;
1721;SDS011;858;53.190;8.596;2023-09-12T02:13:04;56.37;;;44.27;;
1721;SDS011;858;53.190;8.596;2023-09-12T02:15:31;62.40;;;44.97;;
1721;SDS011;858;53.190;8.596;2023-09-12T02:17:57;67.83;;;50.03;;
1721;SDS011;858;53.190;8.596;2023-09-12T02:20:25;65.00;;;51.27;;
1721;SDS011;858;53.190;8.596;2023-09-12T02:22:52;65.07;;;49.60;;
1721;SDS011;858;53.190;8.596;2023-09-12T02:25:18;74.83;;;50.37;;
1721;SDS011;858;53.190;8.596;2023-09-12T02:27:45;67.77;;;51.40;;
1721;SDS011;858;53.190;8.596;2023-09-12T02:30:11;66.07;;;50.67;;
1721;SDS011;858;53.190;8.596;2023-09-12T02:32:38;70.17;;;50.53;;
1721;SDS011;858;53.190;8.596;2023-09-12T02:35:05;65.73;;;48.87;;
1721;SDS011;858;53.190;8.596;2023-09-12T02:37:33;78.47;;;50.67;;
1721;SDS011;858;53.190;8.596;2023-09-12T02:39:59;69.40;;;51.40;;
1721;SDS011;858;53.190;8.596;2023-09-12T02:42:26;68.43;;;50.47;;
1721;SDS011;858;53.190;8.596;2023-09-12T02:44:52;60.73;;;46.50;;
1721;SDS011;858;53.190;8.596;2023-09-12T02:47:19;62.10;;;47.37;;
1721;SDS011;858;53.190;8.596;2023-09-12T02:49:45;65.10;;;47.10;;
1721;SDS011;858;53.190;8.596;2023-09-12T02:52:11;59.80;;;46.07;;
1721;SDS011;858;53.190;8.596;2023-09-12T02:54:40;61.30;;;46.37;;
1721;SDS011;858;53.190;8.596;2023-09-12T02:57:06;68.87;;;52.03;;
1721;SDS011;858;53.190;8.596;2023-09-12T02:59:33;69.43;;;50.03;;
1721;SDS011;858;53.190;8.596;2023-09-12T03:01:59;69.63;;;51.80;;
1721;SDS011;858;53.190;8.596;2023-09-12T03:04:26;67.20;;;51.27;;
1721;SDS011;858;53.190;8.596;2023-09-12T03:06:53;60.80;;;48.90;;
1721;SDS011;858;53.190;8.596;2023-09-12T03:09:19;62.73;;;46.40;;
1721;SDS011;858;53.190;8.596;2023-09-12T03:11:49;64.77;;;49.70;;
1721;SDS011;858;53.190;8.596;2023-09-12T03:14:15;58.83;;;47.63;;
1721;SDS011;858;53.190;8.596;2023-09-12T03:16:41;68.07;;;49.00;;
1721;SDS011;858;53.190;8.596;2023-09-12T03:19:09;65.37;;;50.53;;
1721;SDS011;858;53.190;8.596;2023-09-12T03:21:36;71.30;;;50.57;;
1721;SDS011;858;53.190;8.596;2023-09-12T03:24:04;88.63;;;55.60;;
1721;SDS011;858;53.190;8.596;2023-09-12T03:26:30;61.10;;;50.23;;
1721;SDS011;858;53.190;8.596;2023-09-12T03:28:58;69.43;;;51.97;;
1721;SDS011;858;53.190;8.596;2023-09-12T03:31:24;70.93;;;50.70;;
1721;SDS011;858;53.190;8.596;2023-09-12T03:33:51;69.87;;;50.57;;
1721;SDS011;858;53.190;8.596;2023-09-12T03:36:17;65.50;;;48.13;;
1721;SDS011;858;53.190;8.596;2023-09-12T03:38:43;68.03;;;52.03;;
1721;SDS011;858;53.190;8.596;2023-09-12T03:41:10;58.27;;;46.00;;
1721;SDS011;858;53.190;8.596;2023-09-12T03:43:37;65.33;;;49.27;;
1721;SDS011;858;53.190;8.596;2023-09-12T03:46:05;66.70;;;49.93;;
1721;SDS011;858;53.190;8.596;2023-09-12T03:48:31;66.00;;;50.07;;
1721;SDS011;858;53.190;8.596;2023-09-12T03:50:58;61.80;;;46.43;;
1721;SDS011;858;53.190;8.596;2023-09-12T03:53:26;65.37;;;48.80;;
1721;SDS011;858;53.190;8.596;2023-09-12T03:55:53;65.70;;;47.67;;
1721;SDS011;858;53.190;8.596;2023-09-12T03:58:19;62.87;;;50.67;;
1721;SDS011;858;53.190;8.596;2023-09-12T04:00:46;64.23;;;47.13;;
1721;SDS011;858;53.190;8.596;2023-09-12T04:03:13;60.47;;;47.10;;
1721;SDS011;858;53.190;8.596;2023-09-12T04:05:41;59.77;;;46.20;;
1721;SDS011;858;53.190;8.596;2023-09-12T04:08:07;59.13;;;45.43;;
1721;SDS011;858;53.190;8.596;2023-09-12T04:10:34;61.00;;;46.90;;
1721;SDS011;858;53.190;8.596;2023-09-12T04:13:00;55.77;;;44.20;;
1721;SDS011;858;53.190;8.596;2023-09-12T04:15:26;60.20;;;46.10;;
1721;SDS011;858;53.190;8.596;2023-09-12T04:17:53;68.10;;;47.23;;
1721;SDS011;858;53.190;8.596;2023-09-12T04:20:21;53.63;;;42.57;;
1721;SDS011;858;53.190;8.596;2023-09-12T04:22:47;52.90;;;41.83;;
1721;SDS011;858;53.190;8.596;2023-09-12T04:25:14;57.47;;;43.67;;
1721;SDS011;858;53.190;8.596;2023-09-12T04:27:40;47.13;;;37.73;;
1721;SDS011;858;53.190;8.596;2023-09-12T04:30:07;50.60;;;42.53;;
1721;SDS011;858;53.190;8.596;2023-09-12T04:32:34;54.23;;;45.73;;
1721;SDS011;858;53.190;8.596;2023-09-12T04:35:00;53.83;;;43.93;;
1721;SDS011;858;53.190;8.596;2023-09-12T04:37:28;54.70;;;41.90;;
1721;SDS011;858;53.190;8.596;2023-09-12T04:39:54;49.20;;;39.10;;
1721;SDS011;858;53.190;8.596;2023-09-12T04:42:21;49.33;;;39.93;;
1721;SDS011;858;53.190;8.596;2023-09-12T04:44:47;45.73;;;37.50;;
1721;SDS011;858;53.190;8.596;2023-09-12T04:47:16;49.40;;;40.83;;
1721;SDS011;858;53.190;8.596;2023-09-12T04:49:43;54.00;;;40.73;;
1721;SDS011;858;53.190;8.596;2023-09-12T04:52:09;49.27;;;42.13;;
1721;SDS011;858;53.190;8.596;2023-09-12T04:54:37;59.43;;;44.20;;
1721;SDS011;858;53.190;8.596;2023-09-12T04:57:03;49.30;;;41.20;;
1721;SDS011;858;53.190;8.596;2023-09-12T04:59:31;53.87;;;40.30;;
1721;SDS011;858;53.190;8.596;2023-09-12T05:01:58;49.53;;;42.00;;
1721;SDS011;858;53.190;8.596;2023-09-12T05:04:24;56.83;;;41.27;;
1721;SDS011;858;53.190;8.596;2023-09-12T05:06:50;56.43;;;42.80;;
1721;SDS011;858;53.190;8.596;2023-09-12T05:09:18;46.70;;;38.77;;
1721;SDS011;858;53.190;8.596;2023-09-12T05:11:48;49.03;;;39.53;;
1721;SDS011;858;53.190;8.596;2023-09-12T05:14:15;52.73;;;41.00;;
1721;SDS011;858;53.190;8.596;2023-09-12T05:16:41;51.83;;;40.20;;
1721;SDS011;858;53.190;8.596;2023-09-12T05:19:07;52.20;;;39.97;;
1721;SDS011;858;53.190;8.596;2023-09-12T05:21:34;57.40;;;43.80;;
1721;SDS011;858;53.190;8.596;2023-09-12T05:24:00;54.23;;;41.33;;
1721;SDS011;858;53.190;8.596;2023-09-12T05:26:27;57.23;;;43.40;;
1721;SDS011;858;53.190;8.596;2023-09-12T05:28:55;53.70;;;41.20;;
1721;SDS011;858;53.190;8.596;2023-09-12T05:31:24;49.10;;;41.20;;
1721;SDS011;858;53.190;8.596;2023-09-12T05:33:51;58.30;;;43.93;;
1721;SDS011;858;53.190;8.596;2023-09-12T05:36:17;56.77;;;44.23;;
1721;SDS011;858;53.190;8.596;2023-09-12T05:38:44;57.23;;;42.57;;
1721;SDS011;858;53.190;8.596;2023-09-12T05:41:10;48.73;;;38.97;;
1721;SDS011;858;53.190;8.596;2023-09-12T05:43:37;54.30;;;42.67;;
1721;SDS011;858;53.190;8.596;2023-09-12T05:46:04;46.87;;;37.60;;
1721;SDS011;858;53.190;8.596;2023-09-12T05:48:31;47.03;;;38.20;;
1721;SDS011;858;53.190;8.596;2023-09-12T05:50:57;52.23;;;39.83;;
1721;SDS011;858;53.190;8.596;2023-09-12T05:53:25;49.77;;;39.60;;
1721;SDS011;858;53.190;8.596;2023-09-12T05:55:51;54.10;;;39.80;;
1721;SDS011;858;53.190;8.596;2023-09-12T05:58:19;48.47;;;39.07;;
1721;SDS011;858;53.190;8.596;2023-09-12T06:00:47;53.63;;;42.00;;
1721;SDS011;858;53.190;8.596;2023-09-12T06:03:15;49.07;;;39.93;;
1721;SDS011;858;53.190;8.596;2023-09-12T06:05:42;54.47;;;43.00;;
1721;SDS011;858;53.190;8.596;2023-09-12T06:08:08;53.40;;;42.10;;
1721;SDS011;858;53.190;8.596;2023-09-12T06:10:34;51.77;;;41.93;;
1721;SDS011;858;53.190;8.596;2023-09-12T06:13:01;52.83;;;40.67;;
1721;SDS011;858;53.190;8.596;2023-09-12T06:15:27;50.27;;;39.53;;
1721;SDS011;858;53.190;8.596;2023-09-12T06:17:54;66.93;;;47.97;;
1721;SDS011;858;53.190;8.596;2023-09-12T06:20:22;62.23;;;43.70;;
1721;SDS011;858;53.190;8.596;2023-09-12T06:22:48;71.90;;;49.63;;
1721;SDS011;858;53.190;8.596;2023-09-12T06:25:15;69.60;;;49.93;;
1721;SDS011;858;53.190;8.596;2023-09-12T06:27:42;71.00;;;49.50;;
1721;SDS011;858;53.190;8.596;2023-09-12T06:30:08;75.77;;;47.77;;
1721;SDS011;858;53.190;8.596;2023-09-12T06:32:35;68.20;;;50.00;;
1721;SDS011;858;53.190;8.596;2023-09-12T06:35:01;66.67;;;46.77;;
1721;SDS011;858;53.190;8.596;2023-09-12T06:37:29;80.23;;;50.57;;
1721;SDS011;858;53.190;8.596;2023-09-12T06:39:56;66.97;;;50.20;;
1721;SDS011;858;53.190;8.596;2023-09-12T06:42:24;81.97;;;53.57;;
1721;SDS011;858;53.190;8.596;2023-09-12T06:44:50;70.10;;;49.90;;
1721;SDS011;858;53.190;8.596;2023-09-12T06:47:16;76.47;;;53.00;;
1721;SDS011;858;53.190;8.596;2023-09-12T06:49:43;73.50;;;48.40;;
1721;SDS011;858;53.190;8.596;2023-09-12T06:52:10;76.17;;;50.93;;
1721;SDS011;858;53.190;8.596;2023-09-12T06:54:39;72.87;;;51.03;;
1721;SDS011;858;53.190;8.596;2023-09-12T06:57:06;82.50;;;51.93;;
1721;SDS011;858;53.190;8.596;2023-09-12T06:59:33;78.50;;;52.80;;
1721;SDS011;858;53.190;8.596;2023-09-12T07:01:59;77.30;;;51.03;;
1721;SDS011;858;53.190;8.596;2023-09-12T07:04:25;73.40;;;49.13;;
1721;SDS011;858;53.190;8.596;2023-09-12T07:06:52;68.90;;;50.10;;
1721;SDS011;858;53.190;8.596;2023-09-12T07:09:18;75.50;;;50.50;;
1721;SDS011;858;53.190;8.596;2023-09-12T07:11:46;75.50;;;53.30;;
1721;SDS011;858;53.190;8.596;2023-09-12T07:14:13;69.07;;;50.57;;
1721;SDS011;858;53.190;8.596;2023-09-12T07:16:40;67.07;;;47.47;;
1721;SDS011;858;53.190;8.596;2023-09-12T07:19:06;59.90;;;44.23;;
1721;SDS011;858;53.190;8.596;2023-09-12T07:21:33;56.50;;;43.17;;
1721;SDS011;858;53.190;8.596;2023-09-12T07:23:59;64.20;;;46.60;;
1721;SDS011;858;53.190;8.596;2023-09-12T07:26:26;65.80;;;47.00;;
1721;SDS011;858;53.190;8.596;2023-09-12T07:28:54;60.27;;;46.53;;
1721;SDS011;858;53.190;8.596;2023-09-12T07:31:20;60.03;;;42.70;;
1721;SDS011;858;53.190;8.596;2023-09-12T07:33:46;59.13;;;45.20;;
1721;SDS011;858;53.190;8.596;2023-09-12T07:36:13;62.93;;;47.17;;
1721;SDS011;858;53.190;8.596;2023-09-12T07:38:39;56.40;;;43.37;;
1721;SDS011;858;53.190;8.596;2023-09-12T07:41:07;57.63;;;44.00;;
1721;SDS011;858;53.190;8.596;2023-09-12T07:43:33;61.77;;;42.80;;
1721;SDS011;858;53.190;8.596;2023-09-12T07:46:01;57.17;;;42.40;;
1721;SDS011;858;53.190;8.596;2023-09-12T07:48:27;57.50;;;44.20;;
1721;SDS011;858;53.190;8.596;2023-09-12T07:50:53;63.53;;;45.67;;
1721;SDS011;858;53.190;8.596;2023-09-12T07:53:20;62.53;;;46.03;;
1721;SDS011;858;53.190;8.596;2023-09-12T07:55:48;62.87;;;47.80;;
1721;SDS011;858;53.190;8.596;2023-09-12T07:58:16;61.80;;;44.80;;
1721;SDS011;858;53.190;8.596;2023-09-12T08:00:43;54.67;;;41.93;;
1721;SDS011;858;53.190;8.596;2023-09-12T08:03:11;60.43;;;45.07;;
1721;SDS011;858;53.190;8.596;2023-09-12T08:05:37;58.07;;;44.27;;
1721;SDS011;858;53.190;8.596;2023-09-12T08:08:04;61.83;;;44.13;;
1721;SDS011;858;53.190;8.596;2023-09-12T08:10:31;57.20;;;44.60;;
1721;SDS011;858;53.190;8.596;2023-09-12T08:12:57;55.43;;;43.77;;
1721;SDS011;858;53.190;8.596;2023-09-12T08:15:24;51.80;;;41.97;;
1721;SDS011;858;53.190;8.596;2023-09-12T08:17:50;58.63;;;42.67;;
1721;SDS011;858;53.190;8.596;2023-09-12T08:20:20;54.63;;;43.40;;
1721;SDS011;858;53.190;8.596;2023-09-12T08:22:47;49.67;;;38.80;;
1721;SDS011;858;53.190;8.596;2023-09-12T08:25:15;62.83;;;46.90;;
1721;SDS011;858;53.190;8.596;2023-09-12T08:27:41;56.13;;;42.47;;
1721;SDS011;858;53.190;8.596;2023-09-12T08:30:09;60.10;;;45.70;;
1721;SDS011;858;53.190;8.596;2023-09-12T08:32:35;53.40;;;42.57;;
1721;SDS011;858;53.190;8.596;2023-09-12T08:35:04;52.87;;;39.23;;
1721;SDS011;858;53.190;8.596;2023-09-12T08:37:32;49.13;;;40.70;;
1721;SDS011;858;53.190;8.596;2023-09-12T08:39:59;55.10;;;41.67;;
1721;SDS011;858;53.190;8.596;2023-09-12T08:42:26;56.83;;;43.87;;
1721;SDS011;858;53.190;8.596;2023-09-12T08:44:53;57.17;;;45.70;;
1721;SDS011;858;53.190;8.596;2023-09-12T08:47:19;65.03;;;44.00;;
1721;SDS011;858;53.190;8.596;2023-09-12T08:49:47;53.80;;;41.33;;
1721;SDS011;858;53.190;8.596;2023-09-12T08:52:14;58.17;;;42.10;;
1721;SDS011;858;53.190;8.596;2023-09-12T08:54:43;55.10;;;44.97;;
1721;SDS011;858;53.190;8.596;2023-09-12T08:57:09;57.80;;;42.73;;
1721;SDS011;858;53.190;8.596;2023-09-12T08:59:36;52.60;;;42.30;;
1721;SDS011;858;53.190;8.596;2023-09-12T09:02:03;52.13;;;40.63;;
1721;SDS011;858;53.190;8.596;2023-09-12T09:04:32;53.37;;;42.10;;
1721;SDS011;858;53.190;8.596;2023-09-12T09:07:00;48.33;;;39.30;;
1721;SDS011;858;53.190;8.596;2023-09-12T09:09:29;46.97;;;36.20;;
1721;SDS011;858;53.190;8.596;2023-09-12T09:11:57;51.87;;;38.67;;
1721;SDS011;858;53.190;8.596;2023-09-12T09:14:24;47.63;;;38.60;;
1721;SDS011;858;53.190;8.596;2023-09-12T09:16:50;50.17;;;38.93;;
1721;SDS011;858;53.190;8.596;2023-09-12T09:19:16;53.40;;;40.67;;
1721;SDS011;858;53.190;8.596;2023-09-12T09:21:44;51.60;;;39.20;;
1721;SDS011;858;53.190;8.596;2023-09-12T09:24:12;55.70;;;40.63;;
1721;SDS011;858;53.190;8.596;2023-09-12T09:26:44;48.87;;;39.57;;
1721;SDS011;858;53.190;8.596;2023-09-12T09:29:13;50.97;;;38.50;;
1721;SDS011;858;53.190;8.596;2023-09-12T09:31:40;53.20;;;38.37;;
1721;SDS011;858;53.190;8.596;2023-09-12T09:34:10;51.30;;;40.00;;
1721;SDS011;858;53.190;8.596;2023-09-12T09:36:36;47.97;;;36.80;;
1721;SDS011;858;53.190;8.596;2023-09-12T09:39:03;49.20;;;38.20;;
1721;SDS011;858;53.190;8.596;2023-09-12T09:41:30;50.40;;;38.87;;
1721;SDS011;858;53.190;8.596;2023-09-12T09:43:57;48.53;;;37.30;;
1721;SDS011;858;53.190;8.596;2023-09-12T09:46:26;49.67;;;39.20;;
1721;SDS011;858;53.190;8.596;2023-09-12T09:48:52;46.53;;;37.30;;
1721;SDS011;858;53.190;8.596;2023-09-12T09:51:19;47.57;;;39.03;;
1721;SDS011;858;53.190;8.596;2023-09-12T09:53:45;50.70;;;41.67;;
1721;SDS011;858;53.190;8.596;2023-09-12T09:56:12;53.10;;;41.00;;
1721;SDS011;858;53.190;8.596;2023-09-12T09:58:42;49.57;;;39.30;;
1721;SDS011;858;53.190;8.596;2023-09-12T10:01:12;58.87;;;41.03;;
1721;SDS011;858;53.190;8.596;2023-09-12T10:03:41;49.20;;;39.57;;
1721;SDS011;858;53.190;8.596;2023-09-12T10:06:08;53.13;;;43.60;;
1721;SDS011;858;53.190;8.596;2023-09-12T10:08:34;53.60;;;44.10;;
1721;SDS011;858;53.190;8.596;2023-09-12T10:11:02;56.77;;;41.30;;
1721;SDS011;858;53.190;8.596;2023-09-12T10:13:28;55.63;;;44.03;;
1721;SDS011;858;53.190;8.596;2023-09-12T10:15:58;53.30;;;41.80;;
1721;SDS011;858;53.190;8.596;2023-09-12T10:18:26;62.03;;;41.40;;
1721;SDS011;858;53.190;8.596;2023-09-12T10:20:58;48.17;;;38.27;;
1721;SDS011;858;53.190;8.596;2023-09-12T10:23:31;49.70;;;41.10;;
1721;SDS011;858;53.190;8.596;2023-09-12T10:26:02;50.33;;;39.47;;
1721;SDS011;858;53.190;8.596;2023-09-12T10:28:28;52.30;;;40.93;;
1721;SDS011;858;53.190;8.596;2023-09-12T10:30:58;50.80;;;38.50;;
1721;SDS011;858;53.190;8.596;2023-09-12T10:33:27;51.73;;;39.47;;
1721;SDS011;858;53.190;8.596;2023-09-12T10:35:57;49.43;;;40.93;;
1721;SDS011;858;53.190;8.596;2023-09-12T10:38:24;48.90;;;38.90;;
1721;SDS011;858;53.190;8.596;2023-09-12T10:40:52;49.27;;;37.87;;
1721;SDS011;858;53.190;8.596;2023-09-12T10:43:20;49.70;;;37.10;;
1721;SDS011;858;53.190;8.596;2023-09-12T10:45:48;48.33;;;36.40;;
1721;SDS011;858;53.190;8.596;2023-09-12T10:48:15;43.90;;;37.40;;
1721;SDS011;858;53.190;8.596;2023-09-12T10:50:41;48.10;;;38.10;;
1721;SDS011;858;53.190;8.596;2023-09-12T10:53:10;45.40;;;36.50;;
1721;SDS011;858;53.190;8.596;2023-09-12T10:55:37;47.23;;;37.47;;
1721;SDS011;858;53.190;8.596;2023-09-12T10:58:05;49.87;;;36.67;;
1721;SDS011;858;53.190;8.596;2023-09-12T11:00:32;44.37;;;36.60;;
1721;SDS011;858;53.190;8.596;2023-09-12T11:02:59;42.83;;;36.00;;
1721;SDS011;858;53.190;8.596;2023-09-12T11:05:36;44.90;;;34.40;;
1721;SDS011;858;53.190;8.596;2023-09-12T11:08:03;38.67;;;33.50;;
1721;SDS011;858;53.190;8.596;2023-09-12T11:10:31;38.00;;;32.23;;
1721;SDS011;858;53.190;8.596;2023-09-12T11:12:58;39.80;;;32.03;;
1721;SDS011;858;53.190;8.596;2023-09-12T11:15:25;42.07;;;33.57;;
1721;SDS011;858;53.190;8.596;2023-09-12T11:17:59;41.87;;;34.87;;
1721;SDS011;858;53.190;8.596;2023-09-12T11:20:26;39.00;;;31.97;;
1721;SDS011;858;53.190;8.596;2023-09-12T11:22:52;40.20;;;33.37;;
1721;SDS011;858;53.190;8.596;2023-09-12T11:25:19;46.30;;;36.13;;
1721;SDS011;858;53.190;8.596;2023-09-12T11:28:03;41.33;;;32.63;;
1721;SDS011;858;53.190;8.596;2023-09-12T11:30:30;36.87;;;30.77;;
1721;SDS011;858;53.190;8.596;2023-09-12T11:32:58;34.20;;;28.07;;
1721;SDS011;858;53.190;8.596;2023-09-12T11:35:25;36.13;;;29.90;;
1721;SDS011;858;53.190;8.596;2023-09-12T11:37:53;33.93;;;29.37;;
1721;SDS011;858;53.190;8.596;2023-09-12T11:40:22;35.83;;;29.27;;
1721;SDS011;858;53.190;8.596;2023-09-12T11:42:48;34.77;;;27.90;;
1721;SDS011;858;53.190;8.596;2023-09-12T11:45:18;30.47;;;24.03;;
1721;SDS011;858;53.190;8.596;2023-09-12T11:47:45;26.43;;;23.07;;
1721;SDS011;858;53.190;8.596;2023-09-12T11:50:25;24.70;;;20.90;;
1721;SDS011;858;53.190;8.596;2023-09-12T11:52:57;28.97;;;23.97;;
1721;SDS011;858;53.190;8.596;2023-09-12T11:55:24;29.50;;;26.30;;
1721;SDS011;858;53.190;8.596;2023-09-12T11:57:51;32.03;;;25.77;;
1721;SDS011;858;53.190;8.596;2023-09-12T12:00:23;32.77;;;25.07;;
1721;SDS011;858;53.190;8.596;2023-09-12T12:02:51;25.43;;;22.73;;
1721;SDS011;858;53.190;8.596;2023-09-12T12:05:17;25.00;;;22.17;;
1721;SDS011;858;53.190;8.596;2023-09-12T12:07:44;26.20;;;22.27;;
1721;SDS011;858;53.190;8.596;2023-09-12T12:10:12;27.07;;;23.13;;
1721;SDS011;858;53.190;8.596;2023-09-12T12:12:39;27.47;;;23.13;;
1721;SDS011;858;53.190;8.596;2023-09-12T12:15:09;28.20;;;23.93;;
1721;SDS011;858;53.190;8.596;2023-09-12T12:17:37;33.60;;;25.00;;
1721;SDS011;858;53.190;8.596;2023-09-12T12:20:06;27.70;;;22.17;;
1721;SDS011;858;53.190;8.596;2023-09-12T12:22:35;30.37;;;25.57;;
1721;SDS011;858;53.190;8.596;2023-09-12T12:25:05;29.33;;;24.90;;
1721;SDS011;858;53.190;8.596;2023-09-12T12:27:32;31.33;;;26.13;;
1721;SDS011;858;53.190;8.596;2023-09-12T12:29:58;26.90;;;22.83;;
1721;SDS011;858;53.190;8.596;2023-09-12T12:32:24;24.10;;;19.20;;
1721;SDS011;858;53.190;8.596;2023-09-12T12:34:53;27.33;;;23.63;;
1721;SDS011;858;53.190;8.596;2023-09-12T12:37:19;26.87;;;23.10;;
1721;SDS011;858;53.190;8.596;2023-09-12T12:39:46;26.10;;;22.70;;
1721;SDS011;858;53.190;8.596;2023-09-12T12:42:13;31.70;;;26.17;;
1721;SDS011;858;53.190;8.596;2023-09-12T12:44:39;31.17;;;24.40;;
1721;SDS011;858;53.190;8.596;2023-09-12T12:47:07;29.90;;;24.87;;
1721;SDS011;858;53.190;8.596;2023-09-12T12:49:37;27.20;;;24.30;;
1721;SDS011;858;53.190;8.596;2023-09-12T12:52:08;31.17;;;27.73;;
1721;SDS011;858;53.190;8.596;2023-09-12T12:54:35;31.53;;;25.60;;
1721;SDS011;858;53.190;8.596;2023-09-12T12:57:02;28.90;;;23.50;;
1721;SDS011;858;53.190;8.596;2023-09-12T12:59:28;30.83;;;25.53;;
1721;SDS011;858;53.190;8.596;2023-09-12T13:01:59;28.00;;;24.20;;
1721;SDS011;858;53.190;8.596;2023-09-12T13:04:26;26.10;;;23.30;;
1721;SDS011;858;53.190;8.596;2023-09-12T13:06:52;30.27;;;24.77;;
1721;SDS011;858;53.190;8.596;2023-09-12T13:09:20;25.77;;;22.80;;
1721;SDS011;858;53.190;8.596;2023-09-12T13:11:46;29.50;;;24.43;;
1721;SDS011;858;53.190;8.596;2023-09-12T13:14:13;29.50;;;24.90;;
1721;SDS011;858;53.190;8.596;2023-09-12T13:16:39;27.07;;;21.67;;
1721;SDS011;858;53.190;8.596;2023-09-12T13:19:06;25.57;;;22.90;;
1721;SDS011;858;53.190;8.596;2023-09-12T13:21:32;22.87;;;19.33;;
1721;SDS011;858;53.190;8.596;2023-09-12T13:23:59;25.33;;;19.80;;
1721;SDS011;858;53.190;8.596;2023-09-12T13:26:26;23.20;;;20.73;;
1721;SDS011;858;53.190;8.596;2023-09-12T13:28:53;22.53;;;20.30;;
1721;SDS011;858;53.190;8.596;2023-09-12T13:31:20;23.53;;;21.07;;
1721;SDS011;858;53.190;8.596;2023-09-12T13:33:46;23.57;;;21.23;;
1721;SDS011;858;53.190;8.596;2023-09-12T13:36:12;23.20;;;20.97;;
1721;SDS011;858;53.190;8.596;2023-09-12T13:38:39;21.87;;;19.67;;
1721;SDS011;858;53.190;8.596;2023-09-12T13:41:07;27.50;;;22.47;;
1721;SDS011;858;53.190;8.596;2023-09-12T13:43:34;23.10;;;20.57;;
1721;SDS011;858;53.190;8.596;2023-09-12T13:46:01;25.03;;;22.47;;
1721;SDS011;858;53.190;8.596;2023-09-12T13:48:27;26.53;;;23.83;;
1721;SDS011;858;53.190;8.596;2023-09-12T13:50:53;26.30;;;23.73;;
1721;SDS011;858;53.190;8.596;2023-09-12T13:53:20;29.67;;;26.60;;
1721;SDS011;858;53.190;8.596;2023-09-12T13:55:46;28.33;;;25.43;;
1721;SDS011;858;53.190;8.596;2023-09-12T13:58:12;29.83;;;27.13;;
1721;SDS011;858;53.190;8.596;2023-09-12T14:00:40;25.60;;;23.00;;
1721;SDS011;858;53.190;8.596;2023-09-12T14:03:07;31.93;;;28.67;;
1721;SDS011;858;53.190;8.596;2023-09-12T14:05:33;32.17;;;28.97;;
1721;SDS011;858;53.190;8.596;2023-09-12T14:07:59;31.67;;;28.27;;
1721;SDS011;858;53.190;8.596;2023-09-12T14:10:26;29.93;;;26.83;;
1721;SDS011;858;53.190;8.596;2023-09-12T14:12:52;29.53;;;26.53;;
1721;SDS011;858;53.190;8.596;2023-09-12T14:15:19;27.70;;;24.97;;
1721;SDS011;858;53.190;8.596;2023-09-12T14:17:47;27.93;;;24.97;;
1721;SDS011;858;53.190;8.596;2023-09-12T14:20:14;24.40;;;22.10;;
1721;SDS011;858;53.190;8.596;2023-09-12T14:22:41;28.03;;;25.27;;
1721;SDS011;858;53.190;8.596;2023-09-12T14:25:08;22.67;;;20.50;;
1721;SDS011;858;53.190;8.596;2023-09-12T14:27:39;23.60;;;21.30;;
1721;SDS011;858;53.190;8.596;2023-09-12T14:30:06;23.10;;;20.17;;
1721;SDS011;858;53.190;8.596;2023-09-12T14:32:33;23.10;;;20.80;;
1721;SDS011;858;53.190;8.596;2023-09-12T14:35:01;20.70;;;18.70;;
1721;SDS011;858;53.190;8.596;2023-09-12T14:37:27;23.57;;;20.50;;
1721;SDS011;858;53.190;8.596;2023-09-12T14:39:53;21.20;;;19.00;;
1721;SDS011;858;53.190;8.596;2023-09-12T14:42:20;20.53;;;18.43;;
1721;SDS011;858;53.190;8.596;2023-09-12T14:44:46;20.37;;;18.37;;
1721;SDS011;858;53.190;8.596;2023-09-12T14:47:13;20.47;;;18.27;;
1721;SDS011;858;53.190;8.596;2023-09-12T14:49:39;21.57;;;18.53;;
1721;SDS011;858;53.190;8.596;2023-09-12T14:52:08;23.40;;;20.87;;
1721;SDS011;858;53.190;8.596;2023-09-12T14:54:34;27.00;;;23.03;;
1721;SDS011;858;53.190;8.596;2023-09-12T14:57:01;19.30;;;17.30;;
1721;SDS011;858;53.190;8.596;2023-09-12T14:59:27;20.90;;;17.83;;